Startpagina
METAR-TAF:

METAR-TAF

Vliegvelden :

Lelystad Airport

Lelystad, Nederland

breedte: 52-27-37N, lengte: 005-31-38E, hoogte: -4 m

Actueel weer

Dit bericht is 12 minuten geleden gemaakt, om 22:55 UTC
Wind 5 kt uit het westnoordwesten
Temperatuur 12°C
Vochtigheid 76%
Druk 1026 hPa
Zicht 10 km of meer

METAR: EHLE 122255Z AUTO 29005KT 9999 NCD 12/08 Q1026

Tijdstip: 01:07 (23:07 UTC)

Verwachting

Dit bericht is 6 uur en het 18 minuten geleden gemaakt, om 16:49 UTC
Verwachting geldig van 12 om 18 UTC tot 13 om 24 UTC
Wind 9 kt uit het noordwesten
Zicht 10 km of meer
geen wolken onder 1500 m en geen cumulonimbus

TAF: EHLE 121649Z 1218/1324 31009KT CAVOK

Waarnemingen en weersverwachtingen van meer dan 4000 vliegvelden (METAR en TAF).

De beschikbare stations zijn de gele en rode punten op de kaart.

Ga met uw muis naar het station om de naam te zien.

Klik dan om waarnemingen en weersverwachtingen te zien.

kaart wijzigen: klik op de groene knoppen met een zwart kruis om in te zoomen, op de groene knop met een streepje om uit te zoomen of op de groene pijlen voor aangrenzende kaarten.


METAR-TAF: